Time,TemperatureF,DewpointF,PressureIn,WindDirection,WindDirectionDegrees,WindSpeedMPH,WindSpeedGustMPH,Humidity,HourlyPrecipIn,Conditions,Clouds,dailyrainin,SolarRadiationWatts/m^2,SoftwareType,DateUTC
2013-01-03 00:22:00,3.0,-1.0,-100.00,NNW,328,13.0,19.0,82,0.00,,,0.01,0.000000,,2013-01-03 06:22:00,
2013-01-03 00:32:00,3.0,-1.0,-100.00,NNW,328,13.0,19.0,82,0.00,,,0.01,0.000000,,2013-01-03 06:32:00,
2013-01-03 00:42:00,3.0,-1.0,-100.00,NNW,328,13.0,19.0,82,0.00,,,0.01,0.000000,,2013-01-03 06:42:00,
2013-01-03 00:52:00,3.0,-1.0,-100.00,NNW,328,13.0,19.0,82,0.00,,,0.01,0.000000,,2013-01-03 06:52:00,
2013-01-03 01:22:00,2.0,-2.0,-100.00,NW,321,15.0,18.0,82,0.00,,,0.01,0.000000,,2013-01-03 07:22:00,
2013-01-03 01:33:00,2.0,-2.0,-100.00,NW,321,15.0,18.0,82,0.00,,,0.01,0.000000,,2013-01-03 07:33:00,
2013-01-03 01:42:00,2.0,-2.0,-100.00,NW,321,15.0,18.0,82,0.00,,,0.01,0.000000,,2013-01-03 07:42:00,
2013-01-03 01:52:00,2.0,-2.0,-100.00,NW,321,15.0,18.0,82,0.00,,,0.01,0.000000,,2013-01-03 07:52:00,
2013-01-03 02:22:00,0.0,-4.0,-100.00,NW,318,15.0,21.0,81,0.00,,,0.01,0.000000,,2013-01-03 08:22:00,
2013-01-03 02:33:00,0.0,-4.0,-100.00,NW,318,15.0,21.0,81,0.00,,,0.01,0.000000,,2013-01-03 08:33:00,
2013-01-03 02:42:00,0.0,-4.0,-100.00,NW,318,15.0,21.0,81,0.00,,,0.01,0.000000,,2013-01-03 08:42:00,
2013-01-03 02:53:00,0.0,-4.0,-100.00,NW,318,15.0,21.0,81,0.00,,,0.01,0.000000,,2013-01-03 08:53:00,
2013-01-03 03:22:00,0.0,-4.0,-100.00,NW,316,12.0,18.0,81,0.00,,,0.01,0.000000,,2013-01-03 09:22:00,
2013-01-03 03:33:00,0.0,-4.0,-100.00,NW,316,12.0,18.0,81,0.00,,,0.01,0.000000,,2013-01-03 09:33:00,
2013-01-03 03:43:00,0.0,-4.0,-100.00,NW,316,12.0,18.0,81,0.00,,,0.01,0.000000,,2013-01-03 09:43:00,
2013-01-03 03:52:00,0.0,-4.0,-100.00,NW,316,12.0,18.0,81,0.00,,,0.01,0.000000,,2013-01-03 09:52:00,
2013-01-03 04:22:00,1.0,-4.0,-100.00,NW,321,11.0,13.0,80,0.00,,,0.01,0.000000,,2013-01-03 10:22:00,
2013-01-03 04:33:00,1.0,-4.0,-100.00,NW,321,11.0,13.0,80,0.00,,,0.01,0.000000,,2013-01-03 10:33:00,
2013-01-03 04:42:00,1.0,-4.0,-100.00,NW,321,11.0,13.0,80,0.00,,,0.01,0.000000,,2013-01-03 10:42:00,
2013-01-03 04:52:00,1.0,-4.0,-100.00,NW,321,11.0,13.0,80,0.00,,,0.01,0.000000,,2013-01-03 10:52:00,
2013-01-03 05:23:00,4.0,0.0,-100.00,NNW,336,10.0,15.0,82,0.00,,,0.01,0.000000,,2013-01-03 11:23:00,
2013-01-03 05:33:00,4.0,0.0,-100.00,NNW,336,10.0,15.0,82,0.00,,,0.01,0.000000,,2013-01-03 11:33:00,
2013-01-03 05:43:00,4.0,0.0,-100.00,NNW,336,10.0,15.0,82,0.00,,,0.01,0.000000,,2013-01-03 11:43:00,
2013-01-03 05:53:00,4.0,0.0,-100.00,NNW,336,10.0,15.0,82,0.00,,,0.01,0.000000,,2013-01-03 11:53:00,
2013-01-03 06:22:00,4.0,0.0,-100.00,WNW,296,8.0,11.0,83,0.00,,,0.01,0.000000,,2013-01-03 12:22:00,
2013-01-03 06:33:00,4.0,0.0,-100.00,WNW,296,8.0,11.0,83,0.00,,,0.01,0.000000,,2013-01-03 12:33:00,
2013-01-03 06:42:00,4.0,0.0,-100.00,WNW,296,8.0,11.0,83,0.00,,,0.01,0.000000,,2013-01-03 12:42:00,
2013-01-03 06:52:00,4.0,0.0,-100.00,WNW,296,8.0,11.0,83,0.00,,,0.01,0.000000,,2013-01-03 12:52:00,
2013-01-03 07:22:00,7.0,3.0,-100.00,NW,308,8.0,10.0,83,0.00,,,0.01,0.000000,,2013-01-03 13:22:00,
2013-01-03 07:33:00,7.0,3.0,-100.00,NW,308,8.0,10.0,83,0.00,,,0.01,0.000000,,2013-01-03 13:33:00,
2013-01-03 07:42:00,7.0,3.0,-100.00,NW,308,8.0,10.0,83,0.00,,,0.01,0.000000,,2013-01-03 13:42:00,
2013-01-03 07:52:00,7.0,3.0,-100.00,NW,308,8.0,10.0,83,0.00,,,0.01,0.000000,,2013-01-03 13:52:00,
2013-01-03 08:23:00,10.0,7.0,-100.00,WNW,300,9.0,11.0,86,0.00,,,0.01,0.000000,,2013-01-03 14:23:00,
2013-01-03 08:33:00,10.0,7.0,-100.00,WNW,300,9.0,11.0,86,0.00,,,0.01,0.000000,,2013-01-03 14:33:00,
2013-01-03 08:42:00,10.0,7.0,-100.00,WNW,300,9.0,11.0,86,0.00,,,0.01,0.000000,,2013-01-03 14:42:00,
2013-01-03 08:53:00,10.0,7.0,-100.00,WNW,300,9.0,11.0,86,0.00,,,0.01,0.000000,,2013-01-03 14:53:00,
2013-01-03 09:22:00,10.0,7.0,-100.00,West,280,9.0,12.0,86,0.00,,,0.01,8.000000,,2013-01-03 15:22:00,
2013-01-03 09:33:00,10.0,7.0,-100.00,West,280,9.0,12.0,86,0.00,,,0.01,8.000000,,2013-01-03 15:33:00,
2013-01-03 09:43:00,10.0,7.0,-100.00,West,280,9.0,12.0,86,0.00,,,0.01,8.000000,,2013-01-03 15:43:00,
2013-01-03 09:53:00,10.0,7.0,-100.00,West,280,9.0,12.0,86,0.00,,,0.01,8.000000,,2013-01-03 15:53:00,
2013-01-03 10:22:00,13.0,10.0,-100.00,West,263,12.0,14.0,87,0.00,,,0.01,45.000000,,2013-01-03 16:22:00,
2013-01-03 10:33:00,13.0,10.0,-100.00,West,263,12.0,14.0,87,0.00,,,0.01,45.000000,,2013-01-03 16:33:00,
2013-01-03 10:43:00,13.0,10.0,-100.00,West,263,12.0,14.0,87,0.00,,,0.01,45.000000,,2013-01-03 16:43:00,
2013-01-03 10:52:00,13.0,10.0,-100.00,West,263,12.0,14.0,87,0.00,,,0.01,45.000000,,2013-01-03 16:52:00,
2013-01-03 11:23:00,15.0,12.0,-100.00,West,260,14.0,16.0,87,0.00,,,0.01,85.000000,,2013-01-03 17:23:00,
2013-01-03 11:33:00,15.0,12.0,-100.00,West,260,14.0,16.0,87,0.00,,,0.01,85.000000,,2013-01-03 17:33:00,
2013-01-03 11:43:00,15.0,12.0,-100.00,West,260,14.0,16.0,87,0.00,,,0.01,85.000000,,2013-01-03 17:43:00,
2013-01-03 11:52:00,15.0,12.0,-100.00,West,260,14.0,16.0,87,0.00,,,0.01,85.000000,,2013-01-03 17:52:00,
2013-01-03 12:22:00,16.0,13.0,-100.00,West,260,23.0,28.0,88,0.00,,,0.01,118.000000,,2013-01-03 18:22:00,
2013-01-03 12:33:00,16.0,13.0,-100.00,West,260,23.0,28.0,88,0.00,,,0.01,118.000000,,2013-01-03 18:33:00,
2013-01-03 12:42:00,16.0,13.0,-100.00,West,260,23.0,28.0,88,0.00,,,0.01,118.000000,,2013-01-03 18:42:00,
2013-01-03 12:53:00,16.0,13.0,-100.00,West,260,23.0,28.0,88,0.00,,,0.01,118.000000,,2013-01-03 18:53:00,
2013-01-03 13:56:00,17.0,14.0,-100.00,West,261,27.0,32.0,88,0.00,,,0.00,131.000000,,2013-01-03 19:56:00,
2013-01-03 14:22:00,17.0,14.0,-100.00,West,261,24.0,32.0,88,0.00,,,0.00,114.000000,,2013-01-03 20:22:00,
2013-01-03 14:33:00,17.0,14.0,-100.00,West,261,24.0,32.0,88,0.00,,,0.00,114.000000,,2013-01-03 20:33:00,
2013-01-03 14:42:00,17.0,14.0,-100.00,West,261,24.0,32.0,88,0.00,,,0.00,114.000000,,2013-01-03 20:42:00,
2013-01-03 14:53:00,17.0,14.0,-100.00,West,261,24.0,32.0,88,0.00,,,0.00,114.000000,,2013-01-03 20:53:00,
2013-01-03 15:22:00,17.0,14.0,-100.00,WSW,257,26.0,31.0,88,0.00,,,0.00,106.000000,,2013-01-03 21:22:00,
2013-01-03 15:36:00,17.0,14.0,-100.00,WSW,257,26.0,31.0,88,0.00,,,0.00,106.000000,,2013-01-03 21:36:00,
2013-01-03 15:48:00,17.0,14.0,-100.00,WSW,257,26.0,31.0,88,0.00,,,0.00,106.000000,,2013-01-03 21:48:00,
2013-01-03 16:22:00,18.0,15.0,-100.00,WSW,247,22.0,31.0,88,0.00,,,0.00,79.000000,,2013-01-03 22:22:00,
2013-01-03 16:33:00,18.0,15.0,-100.00,WSW,247,22.0,31.0,88,0.00,,,0.00,79.000000,,2013-01-03 22:33:00,
2013-01-03 16:42:00,18.0,15.0,-100.00,WSW,247,22.0,31.0,88,0.00,,,0.00,79.000000,,2013-01-03 22:42:00,
2013-01-03 16:52:00,18.0,15.0,-100.00,WSW,247,22.0,31.0,88,0.00,,,0.00,79.000000,,2013-01-03 22:52:00,
2013-01-03 17:22:00,16.0,13.0,-100.00,WSW,241,20.0,27.0,89,0.00,,,0.00,42.000000,,2013-01-03 23:22:00,
2013-01-03 17:33:00,16.0,13.0,-100.00,WSW,241,20.0,27.0,89,0.00,,,0.00,42.000000,,2013-01-03 23:33:00,
2013-01-03 17:43:00,16.0,13.0,-100.00,WSW,241,20.0,27.0,89,0.00,,,0.00,42.000000,,2013-01-03 23:43:00,
2013-01-03 17:52:00,16.0,13.0,-100.00,WSW,241,20.0,27.0,89,0.00,,,0.00,42.000000,,2013-01-03 23:52:00,
2013-01-03 18:22:00,16.0,14.0,-100.00,WSW,241,21.0,25.0,90,0.00,,,0.00,0.000000,,2013-01-04 00:22:00,
2013-01-03 18:32:00,16.0,14.0,-100.00,WSW,241,21.0,25.0,90,0.00,,,0.00,0.000000,,2013-01-04 00:32:00,
2013-01-03 18:42:00,16.0,14.0,-100.00,WSW,241,21.0,25.0,90,0.00,,,0.00,0.000000,,2013-01-04 00:42:00,
2013-01-03 18:52:00,16.0,14.0,-100.00,WSW,241,21.0,25.0,90,0.00,,,0.00,0.000000,,2013-01-04 00:52:00,
2013-01-03 19:22:00,18.0,15.0,-100.00,WSW,242,24.0,28.0,89,0.00,,,0.00,0.000000,,2013-01-04 01:22:00,
2013-01-03 19:32:00,18.0,15.0,-100.00,WSW,242,24.0,28.0,89,0.00,,,0.00,0.000000,,2013-01-04 01:32:00,
2013-01-03 19:42:00,18.0,15.0,-100.00,WSW,242,24.0,28.0,89,0.00,,,0.00,0.000000,,2013-01-04 01:42:00,
2013-01-03 19:52:00,18.0,15.0,-100.00,WSW,242,24.0,28.0,89,0.00,,,0.00,0.000000,,2013-01-04 01:52:00,
2013-01-03 20:22:00,19.0,16.0,-100.00,WSW,247,28.0,32.0,88,0.00,,,0.00,0.000000,,2013-01-04 02:22:00,
2013-01-03 20:32:00,19.0,16.0,-100.00,WSW,247,28.0,32.0,88,0.00,,,0.00,0.000000,,2013-01-04 02:32:00,
2013-01-03 20:42:00,19.0,16.0,-100.00,WSW,247,28.0,32.0,88,0.00,,,0.00,0.000000,,2013-01-04 02:42:00,
2013-01-03 20:52:00,19.0,16.0,-100.00,WSW,247,28.0,32.0,88,0.00,,,0.00,0.000000,,2013-01-04 02:52:00,
2013-01-03 21:22:00,19.0,15.0,-100.00,WSW,237,25.0,31.0,84,0.00,,,0.00,0.000000,,2013-01-04 03:22:00,
2013-01-03 21:32:00,19.0,15.0,-100.00,WSW,237,25.0,31.0,84,0.00,,,0.00,0.000000,,2013-01-04 03:32:00,
2013-01-03 21:42:00,19.0,15.0,-100.00,WSW,237,25.0,31.0,84,0.00,,,0.00,0.000000,,2013-01-04 03:42:00,
2013-01-03 21:52:00,19.0,15.0,-100.00,WSW,237,25.0,31.0,84,0.00,,,0.00,0.000000,,2013-01-04 03:52:00,
2013-01-03 22:22:00,19.0,14.0,-100.00,WSW,242,28.0,33.0,81,0.00,,,0.00,0.000000,,2013-01-04 04:22:00,
2013-01-03 22:32:00,19.0,14.0,-100.00,WSW,242,28.0,33.0,81,0.00,,,0.00,0.000000,,2013-01-04 04:32:00,
2013-01-03 22:42:00,19.0,14.0,-100.00,WSW,242,28.0,33.0,81,0.00,,,0.00,0.000000,,2013-01-04 04:42:00,
2013-01-03 22:52:00,19.0,14.0,-100.00,WSW,242,28.0,33.0,81,0.00,,,0.00,0.000000,,2013-01-04 04:52:00,
2013-01-03 23:22:00,19.0,13.0,-100.00,WSW,251,25.0,34.0,77,0.00,,,0.00,0.000000,,2013-01-04 05:22:00,
2013-01-03 23:33:00,19.0,13.0,-100.00,WSW,251,25.0,34.0,77,0.00,,,0.00,0.000000,,2013-01-04 05:33:00,
2013-01-03 23:42:00,19.0,13.0,-100.00,WSW,251,25.0,34.0,77,0.00,,,0.00,0.000000,,2013-01-04 05:42:00,
2013-01-03 23:52:00,19.0,13.0,-100.00,WSW,251,25.0,34.0,77,0.00,,,0.00,0.000000,,2013-01-04 05:52:00,